Time;durP1;ratioP1;P1;durP2;ratioP2;P2;SDS_P1;SDS_P2;PMS_P1;PMS_P2;Temp;Humidity;BMP_temperature;BMP_pressure;BME280_temperature;BME280_humidity;BME280_pressure;Samples;Min_cycle;Max_cycle;Signal;HPM_P1;HPM_P2
2022/06/15 00:01:26;;;;;;;3.78;2.40;;;;;;;26.26;52.03;101234.88;5093001;28;20047;-79
2022/06/15 00:03:54;;;;;;;2.88;2.20;;;;;;;26.26;52.29;101226.72;5091292;28;20056;-79
2022/06/15 00:06:27;;;;;;;3.10;2.40;;;;;;;26.27;52.28;101222.13;5091485;28;20071;-79
2022/06/15 00:08:58;;;;;;;3.65;2.50;;;;;;;26.27;52.18;101231.13;5093155;28;20470;-79
2022/06/15 00:11:28;;;;;;;3.40;2.58;;;;;;;26.27;52.09;101219.44;5092964;28;20395;-79
2022/06/15 00:13:58;;;;;;;3.05;2.30;;;;;;;26.28;52.13;101218.41;5091477;28;20510;-79
2022/06/15 00:16:27;;;;;;;2.97;2.63;;;;;;;26.28;52.17;101218.41;5092744;28;20495;-78
2022/06/15 00:18:54;;;;;;;4.35;2.72;;;;;;;26.28;52.34;101219.25;5096724;28;20051;-79
2022/06/15 00:21:21;;;;;;;3.75;2.05;;;;;;;26.28;52.39;101227.38;5096947;28;20068;-78
2022/06/15 00:23:50;;;;;;;4.03;2.60;;;;;;;26.29;52.14;101220.09;5095017;28;20495;-78
2022/06/15 00:26:18;;;;;;;3.25;2.58;;;;;;;26.28;52.22;101218.41;5096845;28;20051;-77
2022/06/15 00:28:45;;;;;;;3.63;2.40;;;;;;;26.28;52.23;101212.97;5094552;28;20495;-77
2022/06/15 00:31:13;;;;;;;3.65;2.65;;;;;;;26.28;52.44;101218.41;5096042;28;20051;-77
2022/06/15 00:33:40;;;;;;;6.03;2.90;;;;;;;26.28;52.35;101219.25;5096671;28;20044;-78
2022/06/15 00:36:10;;;;;;;4.22;2.72;;;;;;;26.28;52.35;101215.69;5095239;28;20043;-77
2022/06/15 00:38:39;;;;;;;3.28;2.42;;;;;;;26.29;52.45;101222.81;5095696;28;20044;-77
2022/06/15 00:41:09;;;;;;;4.70;2.75;;;;;;;26.29;52.48;101220.09;5096314;28;20048;-77
2022/06/15 00:43:51;;;;;;;4.07;2.33;;;;;;;26.30;52.37;101219.09;5095724;28;20051;-77
2022/06/15 00:46:26;;;;;;;3.22;2.40;;;;;;;26.29;52.24;101214.66;5094956;28;20051;-78
2022/06/15 00:49:17;;;;;;;5.68;2.90;;;;;;;26.29;52.44;101211.94;5094883;28;20055;-79
2022/06/15 00:51:48;;;;;;;5.18;2.70;;;;;;;26.29;52.33;101217.38;5095806;28;20063;-79
2022/06/15 00:54:16;;;;;;;3.50;2.15;;;;;;;26.29;52.15;101209.22;5094722;28;20052;-79
2022/06/15 00:56:44;;;;;;;3.58;2.55;;;;;;;26.28;52.29;101219.25;5096141;28;20403;-79
2022/06/15 00:59:20;;;;;;;4.03;2.67;;;;;;;26.28;52.04;101216.53;5096253;28;20479;-79
2022/06/15 01:01:47;;;;;;;3.75;2.30;;;;;;;26.28;52.58;101210.25;5093789;28;20052;-79
2022/06/15 01:04:19;;;;;;;4.75;2.22;;;;;;;26.28;52.29;101213.81;5093759;28;20059;-78
2022/06/15 01:07:00;;;;;;;3.53;2.63;;;;;;;26.28;52.29;101210.25;5094003;28;20055;-79
2022/06/15 01:09:30;;;;;;;2.97;2.50;;;;;;;26.29;52.23;101222.81;5095520;28;20480;-79
2022/06/15 01:12:16;;;;;;;3.83;3.10;;;;;;;26.28;52.50;101213.81;5093575;28;20055;-79
2022/06/15 01:15:08;;;;;;;3.17;2.67;;;;;;;26.28;52.50;101221.97;5094279;28;20055;-79
2022/06/15 01:17:51;;;;;;;6.20;2.85;;;;;;;26.28;52.42;101227.38;5093660;28;20422;-80
2022/06/15 01:20:27;;;;;;;5.70;2.65;;;;;;;26.28;52.44;101224.66;5094263;28;20052;-80
2022/06/15 01:23:25;;;;;;;3.03;2.40;;;;;;;26.28;52.34;101227.38;5096169;28;20383;-79
2022/06/15 01:26:24;;;;;;;3.88;2.78;;;;;;;26.29;52.29;101228.22;5094003;28;20086;-80
2022/06/15 01:29:00;;;;;;;3.00;2.30;;;;;;;26.29;52.46;101225.50;5094058;28;20059;-79
2022/06/15 01:31:37;;;;;;;2.92;2.33;;;;;;;26.28;52.46;101226.53;5095682;28;20501;-79
2022/06/15 01:34:13;;;;;;;3.95;2.40;;;;;;;26.28;52.49;101221.97;5094046;28;20071;-79
2022/06/15 01:36:46;;;;;;;3.17;2.65;;;;;;;26.29;52.54;101230.94;5093179;28;20055;-79
2022/06/15 01:39:28;;;;;;;3.53;2.67;;;;;;;26.28;52.53;101229.25;5094830;28;20071;-78
2022/06/15 01:42:02;;;;;;;4.57;3.25;;;;;;;26.28;52.69;101234.69;5093755;28;20052;-78
2022/06/15 01:44:37;;;;;;;3.15;2.60;;;;;;;26.27;52.54;101228.41;5093510;28;20050;-78
2022/06/15 01:47:10;;;;;;;3.42;2.55;;;;;;;26.29;52.29;101239.09;5094638;28;20052;-79
2022/06/15 01:49:57;;;;;;;3.63;2.53;;;;;;;26.29;52.35;101239.09;5093126;28;20048;-79
2022/06/15 01:52:31;;;;;;;3.78;2.78;;;;;;;26.28;52.53;101237.41;5076905;28;20056;-80
2022/06/15 01:55:12;;;;;;;3.97;2.70;;;;;;;26.29;52.44;101239.09;5093778;28;20384;-79
2022/06/15 01:57:42;;;;;;;4.88;2.67;;;;;;;26.27;52.54;101230.28;5095563;28;20052;-79
2022/06/15 02:00:16;;;;;;;2.80;2.30;;;;;;;26.29;52.69;101239.09;5093687;28;20384;-79
2022/06/15 02:03:11;;;;;;;4.05;2.60;;;;;;;26.29;52.58;101233.66;5101292;28;20056;-78
2022/06/15 02:06:00;;;;;;;5.78;3.13;;;;;;;26.28;52.69;101242.81;5094486;28;20048;-79
2022/06/15 02:08:45;;;;;;;4.72;2.50;;;;;;;26.29;52.72;101241.81;5092953;28;20055;-79
2022/06/15 02:11:49;;;;;;;3.40;2.75;;;;;;;26.29;52.61;101244.53;5076430;28;20044;-79
2022/06/15 02:14:24;;;;;;;3.13;2.53;;;;;;;26.28;52.64;101243.66;5054768;28;20052;-79
2022/06/15 02:17:05;;;;;;;3.42;2.33;;;;;;;26.29;52.67;101244.53;5054863;28;20423;-80
2022/06/15 02:19:45;;;;;;;;;;;;;;;26.29;52.73;101241.81;5054473;28;20052;-80
2022/06/15 02:22:23;;;;;;;3.80;2.15;;;;;;;26.28;52.81;101238.25;5054633;28;19920;-79
2022/06/15 02:24:54;;;;;;;4.03;2.67;;;;;;;26.28;52.83;101243.66;5054423;28;20056;-79
2022/06/15 02:27:26;;;;;;;3.55;2.92;;;;;;;26.28;52.86;101246.38;5055011;28;20044;-79
2022/06/15 02:30:00;;;;;;;3.67;2.65;;;;;;;26.29;52.80;101233.66;5055648;28;20500;-79
2022/06/15 02:32:28;;;;;;;4.13;2.63;;;;;;;26.29;52.67;101239.09;5054140;28;20055;-79
2022/06/15 02:34:56;;;;;;;3.83;2.60;;;;;;;26.29;53.02;101242.69;5055351;28;20056;-79
2022/06/15 02:37:23;;;;;;;5.15;2.92;;;;;;;26.29;52.89;101244.53;5072087;28;20055;-79
2022/06/15 02:39:50;;;;;;;4.82;3.00;;;;;;;26.28;53.04;101249.09;5054371;28;20059;-79
2022/06/15 02:42:32;;;;;;;6.45;2.58;;;;;;;26.30;52.97;101244.38;5053683;28;20057;-79
2022/06/15 02:45:13;;;;;;;4.13;3.00;;;;;;;26.29;52.91;101242.69;5053911;28;20065;-79
2022/06/15 02:47:42;;;;;;;6.38;2.97;;;;;;;26.28;52.91;101232.81;5060299;28;20407;-79
2022/06/15 02:50:17;;;;;;;4.63;2.47;;;;;;;26.30;53.18;101243.53;5091663;28;20075;-79
2022/06/15 02:53:07;;;;;;;3.97;2.90;;;;;;;26.28;53.08;101243.66;5091866;28;20071;-79
2022/06/15 02:55:37;;;;;;;3.65;2.80;;;;;;;26.29;53.16;101249.94;5092233;28;20044;-79
2022/06/15 02:58:08;;;;;;;5.07;3.10;;;;;;;26.29;53.18;101249.94;5093047;28;20055;-79
2022/06/15 03:00:48;;;;;;;4.32;2.88;;;;;;;26.28;53.17;101254.53;5092349;28;20055;-79
2022/06/15 03:03:22;;;;;;;4.30;2.80;;;;;;;26.29;53.13;101255.38;5092005;28;20079;-79
2022/06/15 03:05:56;;;;;;;3.47;2.55;;;;;;;26.29;53.20;101249.94;5092669;28;20063;-79
2022/06/15 03:08:24;;;;;;;3.53;2.70;;;;;;;26.29;53.17;101255.38;5092225;28;20054;-79
2022/06/15 03:10:59;;;;;;;4.20;2.80;;;;;;;26.29;53.16;101252.66;5094030;28;20051;-79
2022/06/15 03:13:27;;;;;;;4.32;2.80;;;;;;;26.28;52.96;101253.69;5093637;28;20482;-78
2022/06/15 03:15:58;;;;;;;5.50;2.90;;;;;;;26.27;52.92;101247.41;5092046;28;20059;-79
2022/06/15 03:18:26;;;;;;;3.92;2.50;;;;;;;26.28;53.21;101245.53;5091709;28;20048;-79
2022/06/15 03:21:02;;;;;;;4.80;2.97;;;;;;;26.26;53.16;101245.72;5091426;28;20060;-79
2022/06/15 03:23:31;;;;;;;4.15;2.85;;;;;;;26.26;53.32;101248.44;5092067;28;20406;-79
2022/06/15 03:26:01;;;;;;;4.38;2.53;;;;;;;26.28;53.14;101240.97;5091356;28;20044;-78
2022/06/15 03:28:34;;;;;;;3.70;2.83;;;;;;;26.28;53.11;101242.81;5091402;28;20059;-79
2022/06/15 03:31:03;;;;;;;3.75;2.92;;;;;;;26.27;53.13;101260.13;5075012;28;20052;-78
2022/06/15 03:33:32;;;;;;;5.20;2.80;;;;;;;26.27;53.13;101263.69;5091946;28;20048;-79
2022/06/15 03:36:03;;;;;;;4.00;2.80;;;;;;;26.26;53.22;101251.16;5092165;28;20048;-79
2022/06/15 03:38:32;;;;;;;3.92;2.70;;;;;;;26.27;53.18;101262.84;5091570;28;20044;-79
2022/06/15 03:41:11;;;;;;;2.58;2.28;;;;;;;26.27;53.11;101269.13;5091415;28;20067;-79
2022/06/15 03:43:39;;;;;;;3.88;2.88;;;;;;;26.27;53.16;101268.28;5093286;28;20058;-78
2022/06/15 03:46:07;;;;;;;4.78;2.70;;;;;;;26.27;53.15;101271.00;5092126;28;20060;-78
2022/06/15 03:48:38;;;;;;;4.85;2.83;;;;;;;26.26;53.38;101267.44;5092504;28;20387;-78
2022/06/15 03:51:06;;;;;;;3.33;2.70;;;;;;;26.27;53.36;101271.00;5075415;28;20055;-78
2022/06/15 03:53:42;;;;;;;3.55;2.50;;;;;;;26.27;53.30;101273.72;5095300;28;20044;-78
2022/06/15 03:56:10;;;;;;;5.18;3.03;;;;;;;26.27;53.19;101279.13;5095715;28;20054;-79
2022/06/15 03:58:37;;;;;;;5.15;3.25;;;;;;;26.26;53.35;101277.44;5095445;28;20411;-79
2022/06/15 04:01:05;;;;;;;4.85;2.83;;;;;;;26.26;53.36;101277.44;5095385;28;20058;-79
2022/06/15 04:03:33;;;;;;;3.05;2.75;;;;;;;26.26;53.31;101277.44;5095301;28;20074;-78
2022/06/15 04:06:05;;;;;;;4.22;2.80;;;;;;;26.26;53.27;101277.44;5095519;28;20051;-79
2022/06/15 04:08:43;;;;;;;3.25;2.40;;;;;;;26.26;53.20;101280.16;5095563;28;20052;-79
2022/06/15 04:14:13;;;;;;;4.40;2.80;;;;;;;26.24;53.38;101274.88;5096139;28;20056;-79
2022/06/15 04:16:44;;;;;;;4.22;2.58;;;;;;;26.26;53.22;101286.44;5095092;28;20418;-78
2022/06/15 04:19:12;;;;;;;4.22;3.13;;;;;;;26.25;53.27;101275.72;5094662;28;20051;-78
2022/06/15 04:21:43;;;;;;;4.97;2.97;;;;;;;26.25;53.07;101281.16;5078492;28;20056;-78
2022/06/15 04:24:14;;;;;;;3.92;2.97;;;;;;;26.24;53.47;101280.31;5094797;28;20522;-78
2022/06/15 04:26:45;;;;;;;4.45;3.00;;;;;;;26.26;53.41;101282.88;5095096;28;20053;-78
2022/06/15 04:29:17;;;;;;;4.50;3.08;;;;;;;26.25;53.33;101286.56;5094635;28;20056;-78
2022/06/15 04:31:46;;;;;;;4.10;3.22;;;;;;;26.24;53.43;101284.88;5094187;28;20048;-79
2022/06/15 04:34:14;;;;;;;3.75;3.00;;;;;;;26.26;53.42;101285.59;5094634;28;20059;-79
2022/06/15 04:36:43;;;;;;;3.15;2.78;;;;;;;26.24;53.56;101287.59;5094271;28;20047;-79
2022/06/15 04:39:13;;;;;;;4.03;3.17;;;;;;;26.24;53.37;101293.03;5093929;28;20419;-79
2022/06/15 04:41:44;;;;;;;3.95;2.63;;;;;;;26.24;53.54;101288.44;5093873;28;20053;-79
2022/06/15 04:44:12;;;;;;;3.75;2.80;;;;;;;26.25;53.34;101286.56;5095087;28;20395;-79
2022/06/15 04:46:43;;;;;;;4.28;3.03;;;;;;;26.24;53.38;101290.31;5094618;28;20423;-79
2022/06/15 04:49:12;;;;;;;4.05;3.65;;;;;;;26.24;53.59;101282.19;5094668;28;20048;-79
2022/06/15 04:51:46;;;;;;;3.47;2.78;;;;;;;26.25;53.37;101281.16;5094049;28;20419;-79
2022/06/15 04:54:13;;;;;;;4.25;3.28;;;;;;;26.25;53.70;101287.47;5077637;28;20051;-79
2022/06/15 04:56:46;;;;;;;4.43;2.97;;;;;;;26.24;53.59;101284.88;5094662;28;20063;-79
2022/06/15 04:59:17;;;;;;;4.63;2.80;;;;;;;26.23;53.37;101292.19;5095656;28;20051;-79
2022/06/15 05:01:45;;;;;;;3.35;2.75;;;;;;;26.24;53.41;101304.72;5094963;28;20365;-79
2022/06/15 05:04:15;;;;;;;3.10;2.55;;;;;;;26.24;53.58;101304.72;5094427;28;20059;-79
2022/06/15 05:06:43;;;;;;;4.30;2.95;;;;;;;26.24;53.35;101312.03;5094148;28;20048;-79
2022/06/15 05:09:13;;;;;;;3.90;2.58;;;;;;;26.23;53.59;101311.19;5094347;28;20530;-79
2022/06/15 05:11:43;;;;;;;3.90;3.13;;;;;;;26.24;53.58;101306.59;5094245;28;20052;-79
2022/06/15 05:14:12;;;;;;;3.97;3.50;;;;;;;26.24;53.63;101306.59;5077935;28;20291;-78
2022/06/15 05:16:43;;;;;;;4.38;2.78;;;;;;;26.24;53.76;101306.59;5094032;28;20525;-78
2022/06/15 05:19:15;;;;;;;3.58;3.00;;;;;;;26.23;53.57;101302.19;5077898;28;20048;-78
2022/06/15 05:21:44;;;;;;;3.45;2.85;;;;;;;26.24;53.63;101310.16;5093335;28;20044;-79
2022/06/15 05:24:15;;;;;;;5.93;3.35;;;;;;;26.24;53.59;101306.59;5093196;28;20058;-80
2022/06/15 05:26:49;;;;;;;4.47;3.25;;;;;;;26.24;53.59;101299.31;5094004;28;20059;-79
2022/06/15 05:29:17;;;;;;;3.47;2.75;;;;;;;26.23;53.66;101308.47;5093854;28;20054;-79
2022/06/15 05:31:53;;;;;;;3.17;2.88;;;;;;;26.24;53.62;101310.16;5093191;28;20052;-79
2022/06/15 05:34:20;;;;;;;3.30;3.00;;;;;;;26.24;53.79;101312.88;5093108;28;20055;-79
2022/06/15 05:36:48;;;;;;;3.80;3.00;;;;;;;26.24;53.65;101303.88;5093835;28;20055;-79
2022/06/15 05:39:16;;;;;;;3.58;2.58;;;;;;;26.25;53.61;101305.56;5093721;28;20055;-79
2022/06/15 05:41:44;;;;;;;4.75;3.08;;;;;;;26.24;53.89;101303.88;5094832;28;20048;-79
2022/06/15 05:46:42;;;;;;;5.60;3.22;;;;;;;26.24;54.18;101301.19;5093659;28;20055;-77
2022/06/15 05:49:34;;;;;;;4.53;2.85;;;;;;;26.24;54.24;101290.31;5094582;28;20495;-78
2022/06/15 05:52:04;;;;;;;10.68;3.83;;;;;;;26.24;54.31;101295.75;5092879;28;20052;-78
2022/06/15 05:54:34;;;;;;;5.50;3.50;;;;;;;26.23;54.33;101300.31;5092643;28;20052;-78
2022/06/15 05:57:08;;;;;;;6.78;3.85;;;;;;;26.23;54.26;101297.63;5094411;28;20044;-78
2022/06/15 05:59:42;;;;;;;4.90;3.15;;;;;;;26.25;54.21;101298.31;5094850;28;20375;-78
2022/06/15 06:02:11;;;;;;;4.90;3.15;;;;;;;26.24;54.07;101301.19;5095061;28;20044;-79
2022/06/15 06:04:38;;;;;;;3.80;3.33;;;;;;;26.25;54.23;101311.00;5093545;28;20442;-79
2022/06/15 06:07:06;;;;;;;6.45;3.17;;;;;;;26.24;54.26;101318.31;5094620;28;20051;-79
2022/06/15 06:09:34;;;;;;;4.53;3.33;;;;;;;26.24;54.25;101323.72;5094636;28;20069;-80
2022/06/15 06:12:02;;;;;;;4.97;2.90;;;;;;;26.24;54.13;101318.31;5094225;28;20040;-79
2022/06/15 06:14:30;;;;;;;4.38;3.13;;;;;;;26.25;54.11;101320.03;5094168;28;20040;-80
2022/06/15 06:16:57;;;;;;;6.50;3.40;;;;;;;26.26;54.31;101320.88;5094326;28;20052;-80
2022/06/15 06:19:24;;;;;;;5.72;3.75;;;;;;;26.26;54.40;101320.88;5095267;28;20044;-79
2022/06/15 06:21:52;;;;;;;3.47;3.00;;;;;;;26.27;54.05;101314.41;5094117;28;20036;-80
2022/06/15 06:24:19;;;;;;;4.47;2.80;;;;;;;26.26;54.68;101319.00;5093404;28;20052;-79
2022/06/15 06:26:46;;;;;;;9.73;4.47;;;;;;;26.27;54.78;101320.69;5092658;28;20055;-79
2022/06/15 06:29:15;;;;;;;4.95;3.83;;;;;;;26.27;54.88;101319.84;5094603;28;20118;-79
2022/06/15 06:31:43;;;;;;;8.00;4.10;;;;;;;26.26;55.37;101326.31;5093921;28;20036;-79
2022/06/15 06:34:11;;;;;;;9.23;7.00;;;;;;;26.21;56.03;101317.78;5093897;28;20415;-78
2022/06/15 06:36:43;;;;;;;12.98;8.45;;;;;;;26.10;56.30;101314.38;5092889;28;20048;-79
2022/06/15 06:39:24;;;;;;;8.93;7.82;;;;;;;25.98;57.16;101312.97;5094174;28;20052;-81
2022/06/15 06:41:53;;;;;;;8.35;7.55;;;;;;;25.88;57.66;101313.09;5093201;28;20065;-79
2022/06/15 06:44:22;;;;;;;9.55;7.10;;;;;;;25.81;57.89;101317.50;5093553;28;20040;-79
2022/06/15 06:46:51;;;;;;;10.05;6.85;;;;;;;25.78;57.89;101316.97;5093322;28;20055;-79
2022/06/15 06:49:21;;;;;;;8.70;7.45;;;;;;;25.74;57.84;101329.97;5093544;28;20415;-79
2022/06/15 06:51:49;;;;;;;9.15;6.63;;;;;;;25.74;58.13;101326.41;5093148;28;20480;-79
2022/06/15 06:54:20;;;;;;;12.45;9.77;;;;;;;25.43;58.84;101326.91;5093720;28;20581;-78
2022/06/15 06:56:48;;;;;;;11.07;6.75;;;;;;;25.37;58.82;101325.69;5093987;28;20439;-80
2022/06/15 06:59:17;;;;;;;15.38;7.55;;;;;;;25.50;58.49;101327.97;5093364;28;20047;-80
2022/06/15 07:01:46;;;;;;;10.50;7.25;;;;;;;25.55;58.35;101331.03;5093780;28;20036;-79
2022/06/15 07:04:15;;;;;;;9.20;7.35;;;;;;;25.60;58.50;101331.44;5093492;28;20059;-80
2022/06/15 07:06:44;;;;;;;9.95;7.82;;;;;;;25.62;58.50;101332.09;5091378;28;20055;-79
2022/06/15 07:09:12;;;;;;;12.68;7.97;;;;;;;25.61;58.52;101333.13;5092920;28;20036;-83
2022/06/15 07:11:44;;;;;;;13.95;8.15;;;;;;;25.61;58.91;101338.56;5091624;28;20411;-80
2022/06/15 07:14:12;;;;;;;10.93;8.27;;;;;;;25.61;58.96;101333.13;5093737;28;20058;-80
2022/06/15 07:16:42;;;;;;;8.95;7.35;;;;;;;25.61;59.15;101332.28;5092515;28;20391;-81
2022/06/15 07:19:11;;;;;;;11.73;7.70;;;;;;;25.62;59.12;101333.97;5086505;28;20045;-81
2022/06/15 07:21:39;;;;;;;7.72;6.13;;;;;;;25.63;59.18;101333.81;5071838;28;20052;-80
2022/06/15 07:24:08;;;;;;;10.57;7.10;;;;;;;25.67;59.08;101325.34;5072862;28;20484;-80
2022/06/15 07:26:41;;;;;;;7.97;6.95;;;;;;;25.69;58.98;101320.63;5072658;28;20492;-80
2022/06/15 07:29:11;;;;;;;7.90;6.68;;;;;;;25.73;59.05;101324.72;5077515;28;20045;-80
2022/06/15 07:31:41;;;;;;;12.32;9.52;;;;;;;25.71;59.02;101315.88;5077155;28;20052;-80
2022/06/15 07:34:10;;;;;;;12.68;8.88;;;;;;;25.67;59.39;101314.50;5075972;28;20096;-80
2022/06/15 07:36:46;;;;;;;9.02;7.18;;;;;;;25.65;59.20;101312.81;5076769;28;20056;-81
2022/06/15 07:39:16;;;;;;;12.65;10.32;;;;;;;25.67;59.64;101314.50;5077215;28;20376;-82
2022/06/15 07:41:44;;;;;;;9.73;8.73;;;;;;;25.67;59.42;101307.22;5077200;28;20037;-82
2022/06/15 07:44:11;;;;;;;7.82;7.07;;;;;;;25.70;59.50;101319.63;5076725;28;20048;-81
2022/06/15 07:46:39;;;;;;;11.15;8.52;;;;;;;25.68;59.34;101318.91;5076627;28;20052;-80
2022/06/15 07:51:56;;;;;;;8.80;7.65;;;;;;;25.69;59.59;101310.63;5077324;28;20048;-80
2022/06/15 07:54:24;;;;;;;9.55;6.55;;;;;;;25.71;59.21;101322.16;5077534;28;20040;-81
2022/06/15 07:56:54;;;;;;;8.90;6.28;;;;;;;25.74;59.17;101316.41;5076848;28;20041;-81
2022/06/15 07:59:22;;;;;;;7.95;7.25;;;;;;;25.77;59.26;101312.53;5076646;28;20049;-81
2022/06/15 08:01:50;;;;;;;10.55;9.32;;;;;;;25.77;59.74;101308.00;5076550;28;20396;-81
2022/06/15 08:04:18;;;;;;;9.85;8.68;;;;;;;25.74;60.00;101305.56;5076438;28;20041;-80
2022/06/15 08:06:48;;;;;;;10.25;9.27;;;;;;;25.73;59.86;101305.72;5076882;28;20045;-81
2022/06/15 08:09:17;;;;;;;7.97;7.15;;;;;;;25.74;59.73;101310.13;5076955;28;20395;-81
2022/06/15 08:14:36;;;;;;;11.60;7.25;;;;;;;25.83;59.33;101306.47;5075225;28;20384;-79
2022/06/15 08:21:27;;;;;;;9.32;7.65;;;;;;;25.91;59.33;101311.94;5065505;28;20043;-82
2022/06/15 08:23:57;;;;;;;12.27;9.05;;;;;;;25.96;59.08;101312.28;5076441;28;20048;-83
2022/06/15 08:26:33;;;;;;;12.50;9.75;;;;;;;26.00;58.99;101310.94;5075974;28;20044;-79
2022/06/15 08:29:04;;;;;;;10.45;9.35;;;;;;;26.04;58.72;101306.88;5108827;28;20044;-79
2022/06/15 08:31:32;;;;;;;10.35;9.13;;;;;;;26.09;58.85;101307.25;5075944;28;20040;-79
2022/06/15 08:33:59;;;;;;;12.50;9.18;;;;;;;26.13;58.79;101302.34;5075496;28;20048;-79
2022/06/15 08:36:27;;;;;;;11.32;10.10;;;;;;;26.13;58.80;101305.91;5075922;28;20067;-79
2022/06/15 08:38:56;;;;;;;11.85;10.10;;;;;;;26.14;58.93;101301.34;5074306;28;20053;-81
2022/06/15 08:41:35;;;;;;;13.10;11.20;;;;;;;26.17;58.52;101305.56;5075547;28;20460;-81
2022/06/15 08:44:09;;;;;;;14.52;12.55;;;;;;;26.22;58.79;101309.50;5074952;28;20464;-81
2022/06/15 08:46:54;;;;;;;10.73;9.73;;;;;;;26.27;58.20;101312.56;5074597;28;20071;-80
2022/06/15 08:49:40;;;;;;;10.30;8.13;;;;;;;26.28;58.47;101313.41;5075716;28;20092;-80
2022/06/15 08:52:18;;;;;;;12.60;10.70;;;;;;;26.25;58.59;101301.03;5076054;28;20045;-81
2022/06/15 08:54:51;;;;;;;12.50;10.30;;;;;;;26.21;58.56;101298.78;5074707;28;20059;-81
2022/06/15 08:57:30;;;;;;;11.80;10.43;;;;;;;26.20;58.33;101302.53;5076119;28;20048;-80
2022/06/15 09:00:07;;;;;;;11.23;9.90;;;;;;;26.20;58.76;101305.22;5075901;28;20052;-81
2022/06/15 09:02:46;;;;;;;9.73;7.95;;;;;;;26.21;58.06;101296.06;5075255;28;20044;-81
2022/06/15 09:05:14;;;;;;;10.55;8.90;;;;;;;26.23;58.52;101291.34;5076008;28;20103;-81
2022/06/15 09:08:01;;;;;;;9.70;8.70;;;;;;;26.25;58.64;101295.59;5075365;28;20375;-81
2022/06/15 09:10:40;;;;;;;11.90;10.70;;;;;;;26.24;58.85;101301.19;5075674;28;20052;-81
2022/06/15 09:13:26;;;;;;;13.60;10.50;;;;;;;26.22;58.57;101304.06;5075858;28;20099;-81
2022/06/15 09:16:31;;;;;;;10.85;9.32;;;;;;;26.23;58.46;101310.34;5075461;28;20056;-81
2022/06/15 09:19:14;;;;;;;13.60;10.95;;;;;;;26.26;58.44;101299.16;5066125;28;20514;-80
2022/06/15 09:21:50;;;;;;;10.48;9.27;;;;;;;26.27;58.21;101309.00;5074143;28;20063;-80
2022/06/15 09:24:24;;;;;;;10.02;8.73;;;;;;;26.27;58.52;101301.69;5074949;28;20044;-80
2022/06/15 09:26:54;;;;;;;11.00;9.95;;;;;;;26.28;58.45;101299.81;5075385;28;20052;-80
2022/06/15 09:29:27;;;;;;;14.07;11.00;;;;;;;26.27;58.49;101306.28;5107025;28;20674;-80
2022/06/15 09:32:00;;;;;;;12.23;11.02;;;;;;;26.28;58.78;101291.69;5074937;28;20052;-82
2022/06/15 09:34:36;;;;;;;11.10;9.82;;;;;;;26.28;58.35;101288.97;5073538;28;20048;-81
2022/06/15 09:37:11;;;;;;;10.98;9.70;;;;;;;26.28;58.58;101294.41;5074618;28;20048;-79
2022/06/15 09:39:39;;;;;;;10.52;9.52;;;;;;;26.29;58.96;101291.53;5106905;28;20040;-79
2022/06/15 09:42:21;;;;;;;11.07;9.75;;;;;;;26.30;58.61;101295.09;5074355;28;20051;-81
2022/06/15 09:45:10;;;;;;;10.50;9.30;;;;;;;26.30;58.74;101287.81;5074442;28;20048;-81
2022/06/15 09:47:50;;;;;;;11.43;9.40;;;;;;;26.32;58.64;101287.63;5075266;28;20367;-81
2022/06/15 09:50:39;;;;;;;9.35;8.52;;;;;;;26.33;58.65;101290.19;5073966;28;20063;-80
2022/06/15 09:53:54;;;;;;;10.77;9.85;;;;;;;26.34;59.10;101288.31;5073982;28;20514;-81
2022/06/15 09:56:23;;;;;;;10.32;8.68;;;;;;;26.36;58.81;101283.56;5072090;28;20049;-80
2022/06/15 09:58:59;;;;;;;10.80;9.80;;;;;;;26.35;58.80;101274.56;5072540;28;20055;-81
2022/06/15 10:01:32;;;;;;;11.48;9.60;;;;;;;26.38;59.03;101270.69;5072044;28;20064;-81
2022/06/15 10:04:03;;;;;;;10.82;9.73;;;;;;;26.38;59.10;101270.69;5055201;28;20056;-81
2022/06/15 10:06:30;;;;;;;10.70;9.55;;;;;;;26.39;58.90;101273.22;5072065;28;20059;-81
2022/06/15 10:09:00;;;;;;;9.88;8.98;;;;;;;26.42;59.05;101263.91;5071631;28;20447;-82
2022/06/15 10:11:32;;;;;;;15.10;10.27;;;;;;;26.45;59.26;101268.16;5071744;28;20059;-80
2022/06/15 10:14:18;;;;;;;11.32;9.05;;;;;;;26.46;58.93;101270.72;5071797;28;20057;-81
2022/06/15 10:17:01;;;;;;;10.15;8.60;;;;;;;26.49;59.18;101266.78;5071865;28;20050;-81
2022/06/15 10:19:32;;;;;;;9.93;8.93;;;;;;;26.48;59.59;101262.41;5071066;28;20547;-81
2022/06/15 10:22:05;;;;;;;13.27;9.35;;;;;;;26.47;58.98;101258.84;5071096;28;20056;-82
2022/06/15 10:24:38;;;;;;;10.20;9.20;;;;;;;26.48;60.29;101260.53;5071122;28;20517;-82
2022/06/15 10:27:24;;;;;;;9.38;8.55;;;;;;;26.47;60.17;101258.84;5060955;28;20065;-82
2022/06/15 10:30:03;;;;;;;9.73;8.73;;;;;;;26.48;59.37;101248.81;5105567;28;20044;-79
2022/06/15 10:32:31;;;;;;;9.15;8.35;;;;;;;26.49;60.76;101254.06;5071797;28;20495;-79
2022/06/15 10:35:16;;;;;;;10.52;8.82;;;;;;;26.50;60.93;101254.94;5073451;28;20044;-79
2022/06/15 10:37:52;;;;;;;10.30;9.00;;;;;;;26.48;60.01;101243.38;5073509;28;20073;-79
2022/06/15 10:40:23;;;;;;;9.85;8.93;;;;;;;26.50;60.14;101241.38;5073421;28;20047;-79
2022/06/15 10:42:54;;;;;;;9.05;8.25;;;;;;;26.48;60.32;101236.09;5072991;28;20048;-79
2022/06/15 10:45:27;;;;;;;9.77;8.77;;;;;;;26.49;60.93;101226.06;5073333;28;20048;-79
2022/06/15 10:48:06;;;;;;;10.73;8.25;;;;;;;26.48;60.41;101233.38;5073238;28;20438;-81
2022/06/15 10:50:42;;;;;;;9.43;8.10;;;;;;;26.50;59.79;101230.50;5073441;28;20412;-81
2022/06/15 10:53:41;;;;;;;9.27;8.32;;;;;;;26.51;59.94;101222.19;5073324;28;20044;-81
2022/06/15 11:02:13;;;;;;;9.45;8.52;;;;;;;26.53;61.52;101208.41;5072214;28;20503;-82
2022/06/15 11:04:45;;;;;;;8.27;7.47;;;;;;;26.52;61.90;101202.16;5105102;28;20049;-80
2022/06/15 11:07:25;;;;;;;8.13;7.28;;;;;;;26.55;61.73;101214.53;5073240;28;20380;-80
2022/06/15 11:09:55;;;;;;;9.43;8.52;;;;;;;26.55;62.56;101211.84;5073738;28;20115;-80
2022/06/15 11:12:25;;;;;;;8.50;7.13;;;;;;;26.57;61.20;101210.63;5072588;28;20051;-80
2022/06/15 11:15:19;;;;;;;8.18;7.47;;;;;;;26.63;60.82;101206.41;5073004;28;20048;-80
2022/06/15 11:18:03;;;;;;;8.30;7.05;;;;;;;26.65;61.03;101206.22;5072816;28;20047;-79
2022/06/15 11:20:31;;;;;;;7.63;6.85;;;;;;;26.70;60.01;101207.41;5073002;28;20049;-79
2022/06/15 11:23:28;;;;;;;7.78;6.93;;;;;;;26.74;60.53;101210.59;5105638;28;20040;-79
2022/06/15 11:26:51;;;;;;;7.60;6.63;;;;;;;26.72;61.62;101215.38;5071390;28;20130;-79
2022/06/15 11:28:53;;;;;;;8.73;7.25;;;;;;;26.74;60.64;101206.06;5071043;28;20155;-79
2022/06/15 11:31:40;;;;;;;8.68;6.90;;;;;;;26.74;61.32;101206.06;5053485;28;20440;-78
2022/06/15 11:34:16;;;;;;;8.82;6.78;;;;;;;26.74;60.94;101214.19;5070681;28;20523;-78
2022/06/15 11:36:51;;;;;;;7.97;7.18;;;;;;;26.78;60.45;101217.38;5070841;28;20061;-79
2022/06/15 11:39:41;;;;;;;8.07;7.28;;;;;;;26.76;61.06;101216.72;5070530;28;20456;-78
2022/06/15 11:42:14;;;;;;;8.07;7.28;;;;;;;26.75;61.96;101213.16;5070830;28;20183;-77
2022/06/15 11:44:44;;;;;;;11.27;7.22;;;;;;;26.73;61.80;101209.75;5070731;28;20048;-79
2022/06/15 11:47:42;;;;;;;8.45;6.95;;;;;;;26.73;61.62;101206.19;5053574;28;20045;-78
2022/06/15 11:50:11;;;;;;;8.07;7.28;;;;;;;26.71;62.87;101206.38;5070344;28;20056;-78
2022/06/15 11:52:55;;;;;;;6.95;6.35;;;;;;;26.69;62.74;101200.25;5070829;28;20045;-78
2022/06/15 11:55:32;;;;;;;7.47;6.72;;;;;;;26.68;62.57;101201.28;5070578;28;20411;-79
2022/06/15 11:58:21;;;;;;;7.00;6.40;;;;;;;26.66;62.45;101188.88;5070725;28;20416;-78
2022/06/15 12:01:29;;;;;;;7.43;6.28;;;;;;;26.65;62.67;101190.75;5070399;28;20049;-79
2022/06/15 12:04:15;;;;;;;8.20;7.05;;;;;;;26.63;62.15;101188.22;5069544;28;20055;-78
2022/06/15 12:06:43;;;;;;;8.13;7.32;;;;;;;26.63;62.06;101185.50;5105082;28;20041;-79
2022/06/15 12:09:32;;;;;;;7.95;7.15;;;;;;;26.62;61.99;101186.53;5072650;28;20049;-79
2022/06/15 12:15:00;;;;;;;8.18;7.28;;;;;;;26.62;62.32;101183.81;5076279;28;20041;-79
2022/06/15 12:17:41;;;;;;;8.80;6.57;;;;;;;26.61;62.26;101171.25;5076091;28;20068;-79
2022/06/15 12:20:14;;;;;;;8.07;7.18;;;;;;;26.61;62.07;101163.09;5072742;28;20053;-79